createdAt,value
2023-02-11T00:00:35.116Z,7.62
2023-02-11T00:03:04.840Z,7.65
2023-02-11T00:05:36.977Z,7.67
2023-02-11T00:08:07.346Z,7.70
2023-02-11T00:10:37.169Z,7.73
2023-02-11T00:13:09.636Z,7.71
2023-02-11T00:15:40.130Z,7.74
2023-02-11T00:18:09.868Z,7.74
2023-02-11T00:20:42.052Z,7.74
2023-02-11T00:23:12.129Z,7.71
2023-02-11T00:25:43.058Z,7.66
2023-02-11T00:28:16.178Z,7.68
2023-02-11T00:30:46.156Z,7.69
2023-02-11T00:33:15.999Z,7.71
2023-02-11T00:35:45.743Z,7.73
2023-02-11T00:38:15.643Z,7.72
2023-02-11T00:40:45.688Z,7.73
2023-02-11T00:43:18.167Z,7.73
2023-02-11T00:45:48.245Z,7.73
2023-02-11T00:48:18.114Z,7.73
2023-02-11T00:50:47.885Z,7.70
2023-02-11T00:53:17.671Z,7.67
2023-02-11T00:55:47.551Z,7.72
2023-02-11T00:58:20.147Z,7.73
2023-02-11T01:00:50.314Z,7.74
2023-02-11T01:03:20.087Z,7.76
2023-02-11T01:05:50.175Z,7.76
2023-02-11T01:08:20.048Z,7.76
2023-02-11T01:10:57.204Z,7.72
2023-02-11T01:13:31.564Z,7.66
2023-02-11T01:16:01.773Z,7.72
2023-02-11T01:18:32.101Z,7.73
2023-02-11T01:21:02.156Z,7.75
2023-02-11T01:23:31.880Z,7.74
2023-02-11T01:26:01.714Z,7.76
2023-02-11T01:28:35.309Z,7.77
2023-02-11T01:31:06.198Z,7.79
2023-02-11T01:33:36.206Z,7.78
2023-02-11T01:36:07.766Z,7.79
2023-02-11T01:38:38.384Z,7.82
2023-02-11T01:41:10.825Z,7.83
2023-02-11T01:43:46.422Z,7.83
2023-02-11T01:46:26.474Z,7.82
2023-02-11T01:48:59.819Z,7.80
2023-02-11T01:51:34.767Z,7.79
2023-02-11T01:54:19.115Z,7.79
2023-02-11T01:57:04.909Z,7.78
2023-02-11T01:59:43.476Z,7.73
2023-02-11T02:02:15.875Z,7.77
2023-02-11T02:04:51.479Z,7.72
2023-02-11T02:07:31.045Z,7.71
2023-02-11T02:10:06.446Z,7.76
2023-02-11T02:12:36.444Z,7.77
2023-02-11T02:15:35.334Z,7.72
2023-02-11T02:18:16.647Z,7.74
2023-02-11T02:21:15.408Z,7.71
2023-02-11T02:24:14.090Z,7.71
2023-02-11T02:27:17.685Z,7.69
2023-02-11T02:30:09.807Z,7.71
2023-02-11T02:32:53.671Z,7.72
2023-02-11T02:35:36.863Z,7.68
2023-02-11T02:38:11.476Z,7.67
2023-02-11T02:40:48.132Z,7.69
2023-02-11T02:43:18.669Z,7.66
2023-02-11T02:45:48.839Z,7.67
2023-02-11T02:48:35.831Z,7.62
2023-02-11T02:51:18.462Z,7.66
2023-02-11T02:53:58.569Z,7.70
2023-02-11T02:56:38.338Z,7.70
2023-02-11T02:59:21.761Z,7.70
2023-02-11T03:02:00.779Z,7.71
2023-02-11T03:04:40.406Z,7.72
2023-02-11T03:07:20.984Z,7.71
2023-02-11T03:09:58.068Z,7.72
2023-02-11T03:12:30.711Z,7.70
2023-02-11T03:15:02.487Z,7.69
2023-02-11T03:17:35.468Z,7.71
2023-02-11T03:20:13.018Z,7.69
2023-02-11T03:22:48.097Z,7.69
2023-02-11T03:25:18.568Z,7.68
2023-02-11T03:27:55.795Z,7.70
2023-02-11T03:30:30.589Z,7.69
2023-02-11T03:33:06.158Z,7.69
2023-02-11T03:35:43.423Z,7.67
2023-02-11T03:38:18.917Z,7.62
2023-02-11T03:40:48.962Z,7.64
2023-02-11T03:43:23.402Z,7.63
2023-02-11T03:45:56.329Z,7.64
2023-02-11T03:48:30.199Z,7.62
2023-02-11T03:51:07.023Z,7.60
2023-02-11T03:53:37.182Z,7.61
2023-02-11T03:56:12.230Z,7.61
2023-02-11T03:58:42.204Z,7.62
2023-02-11T04:01:12.184Z,7.63
2023-02-11T04:03:42.002Z,7.61
2023-02-11T04:06:14.696Z,7.60
2023-02-11T04:08:44.449Z,7.60
2023-02-11T04:11:14.167Z,7.60
2023-02-11T04:13:44.195Z,7.62
2023-02-11T04:16:14.231Z,7.62
2023-02-11T04:18:44.380Z,7.60
2023-02-11T04:21:17.129Z,7.60
2023-02-11T04:23:46.879Z,7.61
2023-02-11T04:26:16.621Z,7.64
2023-02-11T04:28:46.369Z,7.65
2023-02-11T04:31:16.198Z,7.66
2023-02-11T04:33:46.057Z,7.65
2023-02-11T04:36:18.647Z,7.62
2023-02-11T04:38:51.267Z,7.63
2023-02-11T04:41:21.062Z,7.64
2023-02-11T04:43:50.918Z,7.64
2023-02-11T04:46:21.007Z,7.61
2023-02-11T04:48:50.799Z,7.60
2023-02-11T04:51:23.223Z,7.61
2023-02-11T04:53:53.011Z,7.59
2023-02-11T04:56:22.853Z,7.57
2023-02-11T04:58:52.650Z,7.54
2023-02-11T05:01:22.893Z,7.54
2023-02-11T05:03:52.816Z,7.52
2023-02-11T05:06:25.588Z,7.53
2023-02-11T05:08:55.407Z,7.52
2023-02-11T05:11:27.837Z,7.50
2023-02-11T05:13:57.768Z,7.50
2023-02-11T05:16:27.636Z,7.51
2023-02-11T05:18:57.458Z,7.53
2023-02-11T05:21:29.881Z,7.51
2023-02-11T05:23:59.862Z,7.51
2023-02-11T05:26:30.041Z,7.49
2023-02-11T05:29:00.134Z,7.50
2023-02-11T05:31:29.851Z,7.49
2023-02-11T05:33:59.657Z,7.52
2023-02-11T05:36:33.453Z,7.51
2023-02-11T05:39:03.423Z,7.54
2023-02-11T05:41:33.205Z,7.56
2023-02-11T05:44:02.965Z,7.56
2023-02-11T05:46:33.203Z,7.56
2023-02-11T05:49:03.012Z,7.57
2023-02-11T05:51:35.404Z,7.56
2023-02-11T05:54:05.455Z,7.58
2023-02-11T05:56:35.186Z,7.56
2023-02-11T05:59:04.966Z,7.55
2023-02-11T06:01:34.887Z,7.52
2023-02-11T06:04:06.133Z,7.51
2023-02-11T06:06:38.551Z,7.50
2023-02-11T06:09:08.413Z,7.48
2023-02-11T06:11:38.205Z,7.49
2023-02-11T06:14:08.371Z,7.49
2023-02-11T06:16:38.338Z,7.49
2023-02-11T06:19:08.146Z,7.47
2023-02-11T06:21:44.154Z,7.45
2023-02-11T06:24:14.399Z,7.47
2023-02-11T06:26:44.470Z,7.45
2023-02-11T06:29:14.435Z,7.45
2023-02-11T06:31:44.564Z,7.45
2023-02-11T06:34:14.477Z,7.45
2023-02-11T06:36:47.122Z,7.45
2023-02-11T06:39:17.066Z,7.43
2023-02-11T06:41:46.887Z,7.43
2023-02-11T06:44:16.594Z,7.44
2023-02-11T06:46:46.445Z,7.45
2023-02-11T06:49:16.330Z,7.45
2023-02-11T06:51:49.067Z,7.45
2023-02-11T06:54:18.913Z,7.44
2023-02-11T06:56:48.841Z,7.48
2023-02-11T06:59:20.678Z,7.49
2023-02-11T07:01:50.746Z,7.51
2023-02-11T07:04:20.527Z,7.55
2023-02-11T07:06:52.923Z,7.58
2023-02-11T07:09:22.773Z,7.59
2023-02-11T07:11:52.516Z,7.61
2023-02-11T07:14:22.295Z,7.59
2023-02-11T07:16:52.046Z,7.58
2023-02-11T07:19:21.848Z,7.58
2023-02-11T07:21:55.343Z,7.57
2023-02-11T07:24:25.487Z,7.56
2023-02-11T07:26:56.310Z,7.58
2023-02-11T07:29:26.415Z,7.57
2023-02-11T07:31:56.214Z,7.57
2023-02-11T07:34:26.267Z,7.57
2023-02-11T07:36:59.004Z,7.58
2023-02-11T07:39:29.618Z,7.59
2023-02-11T07:42:00.193Z,7.58
2023-02-11T07:44:30.035Z,7.58
2023-02-11T07:46:59.922Z,7.57
2023-02-11T07:49:29.905Z,7.59
2023-02-11T07:52:02.441Z,7.58
2023-02-11T07:54:32.492Z,7.55
2023-02-11T07:57:02.321Z,7.57
2023-02-11T07:59:32.172Z,7.58
2023-02-11T08:02:01.950Z,7.59
2023-02-11T08:04:31.830Z,7.61
2023-02-11T08:07:05.162Z,7.61
2023-02-11T08:09:35.058Z,7.59
2023-02-11T08:12:04.852Z,7.60
2023-02-11T08:14:35.550Z,7.61
2023-02-11T08:17:05.932Z,7.64
2023-02-11T08:19:35.688Z,7.68
2023-02-11T08:22:08.486Z,7.72
2023-02-11T08:24:38.454Z,7.75
2023-02-11T08:27:08.271Z,7.76
2023-02-11T08:29:37.984Z,7.78
2023-02-11T08:32:08.018Z,7.79
2023-02-11T08:34:37.934Z,7.80
2023-02-11T08:37:10.378Z,7.82
2023-02-11T08:39:40.322Z,7.82
2023-02-11T08:42:10.344Z,7.84
2023-02-11T08:44:40.196Z,7.85
2023-02-11T08:47:10.085Z,7.88
2023-02-11T08:49:42.263Z,7.88
2023-02-11T08:52:14.660Z,7.89
2023-02-11T08:54:44.360Z,7.90
2023-02-11T08:57:14.206Z,7.90
2023-02-11T08:59:44.096Z,7.91
2023-02-11T09:02:15.574Z,7.93
2023-02-11T09:04:45.422Z,7.94
2023-02-11T09:07:18.074Z,7.95
2023-02-11T09:09:47.850Z,7.95
2023-02-11T09:12:18.130Z,7.98
2023-02-11T09:14:47.981Z,8.00
2023-02-11T09:17:17.695Z,8.02
2023-02-11T09:19:47.775Z,8.03
2023-02-11T09:22:20.395Z,8.04
2023-02-11T09:24:50.105Z,8.00
2023-02-11T09:27:19.870Z,8.04
2023-02-11T09:29:49.629Z,8.07
2023-02-11T09:32:19.371Z,8.05
2023-02-11T09:34:49.118Z,8.08
2023-02-11T09:37:21.546Z,8.10
2023-02-11T09:39:51.569Z,8.13
2023-02-11T09:42:42.162Z,8.11
2023-02-11T09:45:18.866Z,8.21
2023-02-11T09:47:53.497Z,8.23
2023-02-11T09:50:28.768Z,8.27
2023-02-11T09:53:05.336Z,8.29
2023-02-11T09:55:39.613Z,8.35
2023-02-11T09:58:15.578Z,8.40
2023-02-11T10:00:51.353Z,8.42
2023-02-11T10:03:49.139Z,8.41
2023-02-11T10:06:39.055Z,8.42
2023-02-11T10:09:30.950Z,8.44
2023-02-11T10:12:14.396Z,8.47
2023-02-11T10:15:02.423Z,8.47
2023-02-11T10:17:44.420Z,8.53
2023-02-11T10:20:26.449Z,8.54
2023-02-11T10:22:58.091Z,8.59
2023-02-11T10:25:36.669Z,8.62
2023-02-11T10:28:17.099Z,8.60
2023-02-11T10:30:54.447Z,8.62
2023-02-11T10:33:30.611Z,8.64
2023-02-11T10:36:00.428Z,8.67
2023-02-11T10:38:31.066Z,8.69
2023-02-11T10:41:03.483Z,8.71
2023-02-11T10:43:35.731Z,8.76
2023-02-11T10:46:09.041Z,8.79
2023-02-11T10:48:42.421Z,8.83
2023-02-11T10:51:20.077Z,8.86
2023-02-11T10:53:51.489Z,8.90
2023-02-11T10:56:31.006Z,8.89
2023-02-11T10:59:03.720Z,8.95
2023-02-11T11:01:46.291Z,8.92
2023-02-11T11:04:37.738Z,8.95
2023-02-11T11:07:17.751Z,8.98
2023-02-11T11:09:51.194Z,9.02
2023-02-11T11:12:42.262Z,9.01
2023-02-11T11:15:22.100Z,9.08
2023-02-11T11:17:52.565Z,9.13
2023-02-11T11:20:27.490Z,9.18
2023-02-11T11:23:13.466Z,9.16
2023-02-11T11:25:46.474Z,9.20
2023-02-11T11:28:28.006Z,9.22
2023-02-11T11:30:59.781Z,9.25
2023-02-11T11:33:32.384Z,9.26
2023-02-11T11:36:06.319Z,9.29
2023-02-11T11:38:40.160Z,9.27
2023-02-11T11:41:26.192Z,9.27
2023-02-11T11:44:04.531Z,9.31
2023-02-11T11:46:37.905Z,9.35
2023-02-11T11:49:18.016Z,9.34
2023-02-11T11:51:54.612Z,9.34
2023-02-11T11:54:27.860Z,9.36
2023-02-11T11:57:02.992Z,9.41
2023-02-11T11:59:37.266Z,9.41
2023-02-11T12:02:44.697Z,9.41
2023-02-11T12:05:20.058Z,9.45
2023-02-11T12:08:03.304Z,9.42
2023-02-11T12:10:51.307Z,9.42
2023-02-11T12:13:36.957Z,9.46
2023-02-11T12:16:17.231Z,9.48
2023-02-11T12:19:20.761Z,9.47
2023-02-11T12:22:03.792Z,9.53
2023-02-11T12:24:46.470Z,9.56
2023-02-11T12:27:21.644Z,9.60
2023-02-11T12:30:16.332Z,9.60
2023-02-11T12:32:57.834Z,9.61
2023-02-11T12:35:46.118Z,9.59
2023-02-11T12:38:32.429Z,9.62
2023-02-11T12:41:42.496Z,9.62
2023-02-11T12:44:21.916Z,9.65
2023-02-11T12:46:59.323Z,9.70
2023-02-11T12:50:00.236Z,9.64
2023-02-11T12:52:44.316Z,9.69
2023-02-11T12:55:23.258Z,9.72
2023-02-11T12:57:55.358Z,9.75
2023-02-11T13:00:28.208Z,9.79
2023-02-11T13:03:02.832Z,9.77
2023-02-11T13:05:41.467Z,9.80
2023-02-11T13:08:18.466Z,9.84
2023-02-11T13:10:53.364Z,9.87
2023-02-11T13:13:28.173Z,9.92
2023-02-11T13:16:02.825Z,9.93
2023-02-11T13:18:49.559Z,9.92
2023-02-11T13:21:34.982Z,9.89
2023-02-11T13:24:17.135Z,9.94
2023-02-11T13:26:53.701Z,9.97
2023-02-11T13:29:32.551Z,9.97
2023-02-11T13:32:10.717Z,9.99
2023-02-11T13:35:02.026Z,9.96
2023-02-11T13:37:39.894Z,9.99
2023-02-11T13:40:24.508Z,10.01
2023-02-11T13:42:56.933Z,10.07
2023-02-11T13:45:33.685Z,10.07
2023-02-11T13:48:08.415Z,10.12
2023-02-11T13:50:42.146Z,10.14
2023-02-11T13:53:16.079Z,10.16
2023-02-11T13:55:48.505Z,10.19
2023-02-11T13:58:40.163Z,10.20
2023-02-11T14:01:10.787Z,10.27
2023-02-11T14:03:54.155Z,10.31
2023-02-11T14:06:51.060Z,10.36
2023-02-11T14:09:44.803Z,10.34
2023-02-11T14:12:38.613Z,10.38
2023-02-11T14:15:28.935Z,10.37
2023-02-11T14:17:59.261Z,10.40
2023-02-11T14:20:47.888Z,10.36
2023-02-11T14:23:29.623Z,10.39
2023-02-11T14:26:20.145Z,10.42
2023-02-11T14:28:52.663Z,10.52
2023-02-11T14:31:27.809Z,10.61
2023-02-11T14:34:21.368Z,10.66
2023-02-11T14:37:03.751Z,10.73
2023-02-11T14:39:49.639Z,10.77
2023-02-11T14:42:27.017Z,10.83
2023-02-11T14:44:59.610Z,10.83
2023-02-11T14:47:38.089Z,10.81
2023-02-11T14:50:10.393Z,10.83
2023-02-11T14:52:41.194Z,10.81
2023-02-11T14:55:31.361Z,10.71
2023-02-11T14:58:17.252Z,10.75
2023-02-11T15:00:56.007Z,10.77
2023-02-11T15:03:35.637Z,10.79
2023-02-11T15:06:09.262Z,10.84
2023-02-11T15:08:41.250Z,10.84
2023-02-11T15:11:15.008Z,10.85
2023-02-11T15:13:49.798Z,10.86
2023-02-11T15:16:23.011Z,10.88
2023-02-11T15:18:56.236Z,10.87
2023-02-11T15:21:28.851Z,10.85
2023-02-11T15:24:00.883Z,10.84
2023-02-11T15:26:31.433Z,10.81
2023-02-11T15:29:05.061Z,10.81
2023-02-11T15:31:35.362Z,10.80
2023-02-11T15:34:10.850Z,10.79
2023-02-11T15:36:41.285Z,10.77
2023-02-11T15:39:31.323Z,10.68
2023-02-11T15:42:19.217Z,10.69
2023-02-11T15:44:56.719Z,10.72
2023-02-11T15:47:32.872Z,10.71
2023-02-11T15:50:03.174Z,10.73
2023-02-11T15:52:33.540Z,10.72
2023-02-11T15:55:04.722Z,10.71
2023-02-11T15:57:34.602Z,10.70
2023-02-11T16:00:08.314Z,10.67
2023-02-11T16:02:45.211Z,10.66
2023-02-11T16:05:30.297Z,10.59
2023-02-11T16:08:01.298Z,10.66
2023-02-11T16:10:33.590Z,10.66
2023-02-11T16:13:21.000Z,10.65
2023-02-11T16:15:57.605Z,10.64
2023-02-11T16:18:38.720Z,10.61
2023-02-11T16:21:16.140Z,10.59
2023-02-11T16:23:52.298Z,10.57
2023-02-11T16:26:30.741Z,10.52
2023-02-11T16:29:14.665Z,10.48
2023-02-11T16:31:50.485Z,10.49
2023-02-11T16:34:22.821Z,10.45
2023-02-11T16:36:53.751Z,10.42
2023-02-11T16:39:25.480Z,10.41
2023-02-11T16:41:56.314Z,10.41
2023-02-11T16:44:26.330Z,10.42
2023-02-11T16:47:01.685Z,10.40
2023-02-11T16:49:34.854Z,10.39
2023-02-11T16:52:09.876Z,10.39
2023-02-11T16:54:39.742Z,10.37
2023-02-11T16:57:16.960Z,10.38
2023-02-11T16:59:47.841Z,10.36
2023-02-11T17:02:25.900Z,10.32
2023-02-11T17:04:56.739Z,10.33
2023-02-11T17:07:26.640Z,10.32
2023-02-11T17:09:56.746Z,10.31
2023-02-11T17:12:27.480Z,10.31
2023-02-11T17:14:57.910Z,10.31
2023-02-11T17:17:30.528Z,10.33
2023-02-11T17:20:00.632Z,10.33
2023-02-11T17:22:31.152Z,10.35
2023-02-11T17:25:01.083Z,10.36
2023-02-11T17:27:31.150Z,10.34
2023-02-11T17:30:01.004Z,10.34
2023-02-11T17:32:33.529Z,10.32
2023-02-11T17:35:03.459Z,10.31
2023-02-11T17:37:33.396Z,10.30
2023-02-11T17:40:03.503Z,10.29
2023-02-11T17:42:33.872Z,10.28
2023-02-11T17:45:03.614Z,10.27
2023-02-11T17:47:36.002Z,10.25
2023-02-11T17:50:05.944Z,10.24
2023-02-11T17:52:36.811Z,10.25
2023-02-11T17:55:07.822Z,10.24
2023-02-11T17:57:37.594Z,10.21
2023-02-11T18:00:09.211Z,10.20
2023-02-11T18:02:41.639Z,10.18
2023-02-11T18:05:12.215Z,10.15
2023-02-11T18:07:42.104Z,10.15
2023-02-11T18:10:13.155Z,10.13
2023-02-11T18:12:43.145Z,10.11
2023-02-11T18:15:15.953Z,10.09
2023-02-11T18:17:48.482Z,10.07
2023-02-11T18:20:18.315Z,10.08
2023-02-11T18:22:48.182Z,10.10
2023-02-11T18:25:19.156Z,10.08
2023-02-11T18:27:49.239Z,10.08
2023-02-11T18:30:20.902Z,10.09
2023-02-11T18:32:56.561Z,10.07
2023-02-11T18:35:27.107Z,10.08
2023-02-11T18:37:56.981Z,10.07
2023-02-11T18:40:26.820Z,10.06
2023-02-11T18:42:56.865Z,10.06
2023-02-11T18:45:28.715Z,10.05
2023-02-11T18:48:05.387Z,10.02
2023-02-11T18:50:35.449Z,9.98
2023-02-11T18:53:05.426Z,9.97
2023-02-11T18:55:35.429Z,9.99
2023-02-11T18:58:05.428Z,9.97
2023-02-11T19:00:35.586Z,9.96
2023-02-11T19:03:08.064Z,9.96
2023-02-11T19:05:44.070Z,9.95
2023-02-11T19:08:13.994Z,9.95
2023-02-11T19:10:44.510Z,9.96
2023-02-11T19:13:14.598Z,9.93
2023-02-11T19:15:45.480Z,9.92
2023-02-11T19:18:18.779Z,9.92
2023-02-11T19:20:48.569Z,9.89
2023-02-11T19:23:18.343Z,9.88
2023-02-11T19:25:50.011Z,9.88
2023-02-11T19:28:20.031Z,9.88
2023-02-11T19:30:49.891Z,9.88
2023-02-11T19:33:22.454Z,9.89
2023-02-11T19:35:52.654Z,9.89
2023-02-11T19:38:22.844Z,9.89
2023-02-11T19:40:59.089Z,9.90
2023-02-11T19:43:28.994Z,9.92
2023-02-11T19:45:58.897Z,9.93
2023-02-11T19:48:31.573Z,9.93
2023-02-11T19:51:01.522Z,9.92
2023-02-11T19:53:31.525Z,9.91
2023-02-11T19:56:04.009Z,9.88
2023-02-11T19:58:33.753Z,9.88
2023-02-11T20:01:09.184Z,9.88
2023-02-11T20:03:42.786Z,9.86
2023-02-11T20:06:18.214Z,9.85
2023-02-11T20:08:47.973Z,9.85
2023-02-11T20:11:19.784Z,9.83
2023-02-11T20:13:49.942Z,9.84
2023-02-11T20:16:23.112Z,9.83
2023-02-11T20:18:57.201Z,9.82
2023-02-11T20:21:28.616Z,9.84
2023-02-11T20:23:58.630Z,9.83
2023-02-11T20:26:30.535Z,9.84
2023-02-11T20:29:02.351Z,9.84
2023-02-11T20:31:34.025Z,9.82
2023-02-11T20:34:06.837Z,9.81
2023-02-11T20:36:39.422Z,9.80
2023-02-11T20:39:09.971Z,9.79
2023-02-11T20:41:41.696Z,9.79
2023-02-11T20:44:14.309Z,9.79
2023-02-11T20:46:46.954Z,9.79
2023-02-11T20:49:22.703Z,9.79
2023-02-11T20:51:54.278Z,9.80
2023-02-11T20:54:25.934Z,9.81
2023-02-11T20:56:58.314Z,9.80
2023-02-11T20:59:28.194Z,9.79
2023-02-11T21:01:59.514Z,9.78
2023-02-11T21:04:33.435Z,9.74
2023-02-11T21:07:05.046Z,9.74
2023-02-11T21:09:36.064Z,9.72
2023-02-11T21:12:07.579Z,9.70
2023-02-11T21:14:37.313Z,9.69
2023-02-11T21:17:07.672Z,9.69
2023-02-11T21:19:41.478Z,9.68
2023-02-11T21:22:11.953Z,9.70
2023-02-11T21:24:41.990Z,9.72
2023-02-11T21:27:11.896Z,9.72
2023-02-11T21:29:53.531Z,9.72
2023-02-11T21:32:23.839Z,9.72
2023-02-11T21:34:56.949Z,9.71
2023-02-11T21:37:27.655Z,9.69
2023-02-11T21:39:57.562Z,9.68
2023-02-11T21:42:27.414Z,9.70
2023-02-11T21:44:57.184Z,9.68
2023-02-11T21:47:26.976Z,9.69
2023-02-11T21:49:59.396Z,9.65
2023-02-11T21:52:29.173Z,9.67
2023-02-11T21:54:59.099Z,9.65
2023-02-11T21:57:29.055Z,9.65
2023-02-11T21:59:58.914Z,9.67
2023-02-11T22:02:29.255Z,9.67
2023-02-11T22:05:02.984Z,9.66
2023-02-11T22:07:33.401Z,9.68
2023-02-11T22:10:04.868Z,9.67
2023-02-11T22:12:34.723Z,9.65
2023-02-11T22:15:04.700Z,9.63
2023-02-11T22:17:34.656Z,9.63
2023-02-11T22:20:07.800Z,9.63
2023-02-11T22:22:37.680Z,9.62
2023-02-11T22:25:08.194Z,9.62
2023-02-11T22:27:38.338Z,9.61
2023-02-11T22:30:09.549Z,9.59
2023-02-11T22:32:40.268Z,9.56
2023-02-11T22:35:12.734Z,9.57
2023-02-11T22:37:42.607Z,9.57
2023-02-11T22:40:13.740Z,9.57
2023-02-11T22:42:43.696Z,9.59
2023-02-11T22:45:13.640Z,9.55
2023-02-11T22:47:43.725Z,9.56
2023-02-11T22:50:16.291Z,9.55
2023-02-11T22:52:46.097Z,9.54
2023-02-11T22:55:15.817Z,9.54
2023-02-11T22:57:45.679Z,9.56
2023-02-11T23:00:17.151Z,9.56
2023-02-11T23:02:47.069Z,9.56
2023-02-11T23:05:22.382Z,9.58
2023-02-11T23:07:52.182Z,9.61
2023-02-11T23:10:21.957Z,9.63
2023-02-11T23:12:51.804Z,9.62
2023-02-11T23:15:21.558Z,9.65
2023-02-11T23:17:51.488Z,9.66
2023-02-11T23:20:24.098Z,9.67
2023-02-11T23:22:53.962Z,9.69
2023-02-11T23:25:23.890Z,9.70
2023-02-11T23:27:53.701Z,9.71
2023-02-11T23:30:27.661Z,9.70
2023-02-11T23:32:57.547Z,9.71
2023-02-11T23:35:30.137Z,9.71
2023-02-11T23:37:59.960Z,9.71
2023-02-11T23:40:29.819Z,9.71
2023-02-11T23:42:59.660Z,9.70
2023-02-11T23:45:29.512Z,9.72
2023-02-11T23:47:59.403Z,9.73
2023-02-11T23:50:32.736Z,9.74
2023-02-11T23:53:02.694Z,9.74
2023-02-11T23:55:32.794Z,9.74
2023-02-11T23:58:02.530Z,9.74
